Time;durP1;ratioP1;P1;durP2;ratioP2;P2;SDS_P1;SDS_P2;PMS_P1;PMS_P2;Temp;Humidity;BMP_temperature;BMP_pressure;BME280_temperature;BME280_humidity;BME280_pressure;Samples;Min_cycle;Max_cycle;Signal;HPM_P1;HPM_P2
2023/09/05 00:02:00;;;;;;;7.05;4.00;;;;;;;19.49;93.54;101871.63;5071082;28;20082;-64
2023/09/05 00:04:48;;;;;;;8.32;4.30;;;;;;;19.47;94.09;101876.63;5071720;28;20055;-64
2023/09/05 00:07:40;;;;;;;7.57;3.90;;;;;;;19.46;94.30;101875.00;5051453;28;20076;-63
2023/09/05 00:10:28;;;;;;;9.82;4.15;;;;;;;19.44;94.59;101868.97;5062729;28;20502;-64
2023/09/05 00:13:16;;;;;;;8.93;4.00;;;;;;;19.44;95.21;101871.72;5061863;28;20440;-63
2023/09/05 00:16:04;;;;;;;8.52;4.47;;;;;;;19.45;94.83;101880.81;5052467;28;20132;-64
2023/09/05 00:18:52;;;;;;;8.68;4.60;;;;;;;19.45;94.85;101875.31;5051884;28;20041;-63
2023/09/05 00:21:40;;;;;;;7.65;4.40;;;;;;;19.46;95.08;101887.97;5054073;28;20170;-64
2023/09/05 00:24:35;;;;;;;7.28;3.95;;;;;;;19.46;95.23;101880.53;5056231;28;20489;-64
2023/09/05 00:27:23;;;;;;;9.45;4.25;;;;;;;19.45;95.33;101887.16;5057382;28;20132;-64
2023/09/05 00:30:14;;;;;;;6.18;3.85;;;;;;;19.43;95.54;101892.19;5067707;28;20484;-64
2023/09/05 00:33:02;;;;;;;10.38;4.68;;;;;;;19.39;95.24;101890.34;5051693;28;20528;-64
2023/09/05 00:35:53;;;;;;;8.27;4.78;;;;;;;19.29;96.08;101896.84;5052289;28;20041;-63
2023/09/05 00:38:42;;;;;;;7.60;4.45;;;;;;;19.21;96.71;101890.06;5051981;28;20132;-64
2023/09/05 00:41:30;;;;;;;9.20;4.82;;;;;;;19.18;97.32;101890.66;5045779;28;20186;-64
2023/09/05 00:44:18;;;;;;;7.43;4.35;;;;;;;19.16;97.50;101899.25;5069174;28;20127;-63
2023/09/05 00:47:06;;;;;;;5.72;3.90;;;;;;;19.15;97.19;101902.31;5071608;28;20052;-63
2023/09/05 00:49:54;;;;;;;8.63;4.20;;;;;;;19.11;97.89;101902.09;5059669;28;20044;-63
2023/09/05 00:52:44;;;;;;;10.18;5.07;;;;;;;19.07;97.46;101900.22;5040118;28;20052;-64
2023/09/05 00:55:32;;;;;;;9.00;4.55;;;;;;;18.99;97.83;101898.13;5054340;28;20056;-64
2023/09/05 00:58:20;;;;;;;8.15;4.43;;;;;;;18.91;97.86;101891.34;5040144;28;20127;-63
2023/09/05 01:01:08;;;;;;;7.68;4.57;;;;;;;18.86;97.92;101899.72;5040724;28;20076;-65
2023/09/05 01:03:57;;;;;;;8.45;4.60;;;;;;;18.82;98.16;101896.72;5068636;28;20041;-64
2023/09/05 01:07:03;;;;;;;8.55;4.70;;;;;;;18.79;98.43;101904.78;5052373;28;20045;-63
2023/09/05 01:10:11;;;;;;;9.18;4.53;;;;;;;18.76;97.98;101900.69;5051077;28;20041;-64
2023/09/05 01:12:59;;;;;;;8.20;4.57;;;;;;;18.74;98.19;101903.69;5052202;28;20064;-63
2023/09/05 01:15:47;;;;;;;7.25;4.15;;;;;;;18.78;98.11;101889.31;5072141;28;20109;-64
2023/09/05 01:18:39;;;;;;;6.88;3.85;;;;;;;18.80;97.81;101892.59;5072396;28;20127;-65
2023/09/05 01:21:36;;;;;;;8.25;4.47;;;;;;;18.82;97.67;101898.66;5052956;28;20048;-64
2023/09/05 01:24:24;;;;;;;8.77;4.03;;;;;;;18.85;97.38;101892.53;5073233;28;20056;-63
2023/09/05 01:27:19;;;;;;;7.05;4.18;;;;;;;18.86;97.46;101892.25;5073322;28;20424;-63
2023/09/05 01:30:08;;;;;;;7.95;4.30;;;;;;;18.88;96.54;101891.94;5057976;28;20127;-65
2023/09/05 01:32:56;;;;;;;8.45;4.40;;;;;;;18.83;96.94;101892.00;5057347;28;20404;-64
2023/09/05 01:35:44;;;;;;;7.28;4.28;;;;;;;18.73;97.23;101885.47;5059252;28;20052;-64
2023/09/05 01:38:32;;;;;;;7.07;4.10;;;;;;;18.72;98.02;101883.84;5032252;28;20071;-63
2023/09/05 01:41:20;;;;;;;9.30;4.28;;;;;;;18.66;97.98;101873.97;5051472;28;20053;-64
2023/09/05 01:44:08;;;;;;;7.97;4.22;;;;;;;18.60;98.88;101875.16;5038887;28;20106;-64
2023/09/05 01:46:56;;;;;;;7.20;3.83;;;;;;;18.55;99.24;101878.00;5054872;28;20052;-64
2023/09/05 01:49:44;;;;;;;10.27;4.60;;;;;;;18.47;99.51;101871.22;5073816;28;20083;-64
2023/09/05 01:52:32;;;;;;;7.90;4.38;;;;;;;18.42;100.00;101878.72;5072918;28;20052;-64
2023/09/05 01:55:20;;;;;;;9.30;4.45;;;;;;;18.40;100.00;101886.47;5072944;28;20056;-62
2023/09/05 01:58:08;;;;;;;8.93;4.28;;;;;;;18.40;100.00;101891.97;5054040;28;20048;-64
2023/09/05 02:01:00;;;;;;;8.70;4.20;;;;;;;18.41;99.93;101891.69;5037040;28;20155;-63
2023/09/05 02:03:49;;;;;;;9.48;4.32;;;;;;;18.40;99.81;101891.97;5052924;28;20049;-62
2023/09/05 02:06:37;;;;;;;8.20;3.88;;;;;;;18.42;99.66;101889.75;5069798;28;20070;-63
2023/09/05 02:09:25;;;;;;;7.40;3.70;;;;;;;18.44;99.71;101887.53;5070650;28;20506;-63
2023/09/05 02:12:14;;;;;;;7.68;4.05;;;;;;;18.46;99.45;101885.28;5051657;28;20086;-63
2023/09/05 02:15:03;;;;;;;7.20;4.28;;;;;;;18.51;98.82;101887.97;5032927;28;20493;-63
2023/09/05 02:17:55;;;;;;;6.18;3.70;;;;;;;18.55;98.77;101883.53;5032394;28;20135;-64
2023/09/05 02:20:48;;;;;;;8.75;4.32;;;;;;;18.58;98.36;101880.16;5062116;28;20121;-63
2023/09/05 02:23:36;;;;;;;7.20;4.18;;;;;;;18.59;97.72;101879.06;5049077;28;20408;-63
2023/09/05 02:26:24;;;;;;;8.43;4.38;;;;;;;18.56;97.19;101878.81;5051974;28;20128;-64
2023/09/05 02:29:12;;;;;;;9.20;4.10;;;;;;;18.49;97.02;101884.69;5051332;28;20106;-65
2023/09/05 02:32:00;;;;;;;9.60;4.07;;;;;;;18.43;96.72;101885.91;5032641;28;20132;-64
2023/09/05 02:34:52;;;;;;;6.13;3.67;;;;;;;18.45;97.04;101889.19;5031413;28;20072;-63
2023/09/05 02:37:41;;;;;;;9.35;3.83;;;;;;;18.43;96.44;101883.13;5028242;28;20077;-64
2023/09/05 02:40:29;;;;;;;7.03;3.75;;;;;;;18.43;96.47;101880.38;5038850;28;20048;-65
2023/09/05 02:43:17;;;;;;;8.02;4.03;;;;;;;18.42;96.97;101878.72;5047881;28;20117;-64
2023/09/05 02:46:05;;;;;;;6.63;3.78;;;;;;;18.44;96.50;101884.75;5049988;28;20040;-64
2023/09/05 02:48:53;;;;;;;6.40;3.70;;;;;;;18.47;96.65;101878.66;5053440;28;20045;-64
2023/09/05 02:51:41;;;;;;;7.97;3.80;;;;;;;18.47;96.58;101873.97;5065153;28;20061;-63
2023/09/05 02:54:29;;;;;;;8.07;4.07;;;;;;;18.46;96.14;101874.25;5051104;28;20049;-63
2023/09/05 02:57:18;;;;;;;9.15;3.70;;;;;;;18.41;96.46;101874.31;5051162;28;20049;-63
2023/09/05 03:00:07;;;;;;;12.60;4.30;;;;;;;18.35;96.46;101873.56;5051539;28;20056;-64
2023/09/05 03:02:56;;;;;;;6.53;4.00;;;;;;;18.34;96.98;101865.59;5048800;28;20508;-64
2023/09/05 03:05:44;;;;;;;6.60;3.88;;;;;;;18.33;96.78;101869.44;5053193;28;20063;-64
2023/09/05 03:08:34;;;;;;;6.32;3.80;;;;;;;18.29;96.69;101858.19;5053375;28;20522;-64
2023/09/05 03:11:23;;;;;;;6.28;3.95;;;;;;;18.28;96.82;101857.38;5063835;28;20041;-65
2023/09/05 03:14:11;;;;;;;10.98;4.70;;;;;;;18.29;97.02;101859.00;5049921;28;20515;-63
2023/09/05 03:17:02;;;;;;;8.38;4.20;;;;;;;18.29;96.87;101850.72;5065904;28;20045;-64
2023/09/05 03:19:50;;;;;;;7.00;3.83;;;;;;;18.30;97.30;101851.53;5037215;28;20134;-64
2023/09/05 03:22:38;;;;;;;7.38;4.03;;;;;;;18.31;96.85;101854.00;5020375;28;20045;-64
2023/09/05 03:25:26;;;;;;;8.82;3.90;;;;;;;18.32;96.93;101857.59;5068008;28;20464;-64
2023/09/05 03:28:14;;;;;;;6.88;4.10;;;;;;;18.30;96.96;101854.28;5051944;28;20053;-64
2023/09/05 03:31:04;;;;;;;9.30;4.63;;;;;;;18.30;96.75;101848.78;5038327;28;20092;-63
2023/09/05 03:33:53;;;;;;;9.00;4.65;;;;;;;18.23;96.82;101843.66;5050948;28;20076;-64
2023/09/05 03:36:41;;;;;;;10.27;4.35;;;;;;;18.24;97.38;101844.47;5016508;28;20049;-64
2023/09/05 03:39:29;;;;;;;11.43;4.78;;;;;;;18.23;97.39;101832.59;5031615;28;20513;-64
2023/09/05 03:42:17;;;;;;;8.18;4.20;;;;;;;18.23;97.68;101832.59;5035701;28;20463;-64
2023/09/05 03:45:05;;;;;;;11.05;4.38;;;;;;;18.19;97.36;101831.56;5051578;28;20045;-64
2023/09/05 03:47:54;;;;;;;7.25;3.88;;;;;;;18.16;97.81;101840.41;5050619;28;20493;-64
2023/09/05 03:50:49;;;;;;;6.57;3.92;;;;;;;18.13;98.50;101837.41;5050781;28;20128;-65
2023/09/05 03:53:37;;;;;;;9.00;5.15;;;;;;;18.12;98.11;101844.06;5049822;28;20126;-65
2023/09/05 03:56:27;;;;;;;6.78;4.22;;;;;;;18.05;98.08;101841.66;5065008;28;20055;-65
2023/09/05 03:59:15;;;;;;;7.75;4.18;;;;;;;18.01;98.36;101848.84;5036403;28;20044;-65
2023/09/05 04:02:03;;;;;;;8.52;4.22;;;;;;;18.00;98.43;101856.31;5045010;28;20049;-64
2023/09/05 04:04:55;;;;;;;8.50;4.47;;;;;;;17.99;98.38;101848.31;5030583;28;20528;-65
2023/09/05 04:07:42;;;;;;;9.63;4.20;;;;;;;17.96;98.45;101851.69;5048299;28;20102;-65
2023/09/05 04:10:31;;;;;;;8.48;4.22;;;;;;;17.97;98.73;101851.41;5050761;28;20149;-63
2023/09/05 04:13:19;;;;;;;7.55;4.15;;;;;;;17.99;98.46;101837.28;5051952;28;20446;-64
2023/09/05 04:16:07;;;;;;;8.35;4.45;;;;;;;18.00;98.26;101833.44;5070734;28;20054;-63
2023/09/05 04:18:55;;;;;;;10.32;4.45;;;;;;;18.01;98.42;101826.78;5070857;28;20407;-64
2023/09/05 04:21:44;;;;;;;9.43;3.83;;;;;;;17.99;98.44;101827.09;5069435;28;20519;-64
2023/09/05 04:24:32;;;;;;;8.73;4.22;;;;;;;17.95;98.66;101826.03;5040088;28;20136;-65
2023/09/05 04:27:21;;;;;;;7.60;4.47;;;;;;;17.94;98.75;101829.09;5066928;28;20044;-64
2023/09/05 04:30:12;;;;;;;7.43;4.07;;;;;;;17.97;98.98;101834.03;5025571;28;20412;-64
2023/09/05 04:33:03;;;;;;;7.80;3.83;;;;;;;17.97;99.03;101842.31;5050933;28;20049;-64
2023/09/05 04:35:51;;;;;;;7.32;4.25;;;;;;;17.95;98.75;101839.00;5075020;28;20488;-64
2023/09/05 04:38:41;;;;;;;9.20;4.13;;;;;;;17.91;99.29;101830.50;5058598;28;20139;-65
2023/09/05 04:41:28;;;;;;;9.38;4.03;;;;;;;17.91;99.27;101835.19;5028491;28;20060;-65
2023/09/05 04:44:16;;;;;;;8.23;4.00;;;;;;;17.89;99.42;101832.72;5072338;28;20508;-63
2023/09/05 04:47:24;;;;;;;8.95;4.70;;;;;;;17.82;99.49;101826.72;5073790;28;20059;-65
2023/09/05 04:50:12;;;;;;;7.82;4.47;;;;;;;17.75;99.87;101827.06;5060516;28;20049;-64
2023/09/05 04:53:00;;;;;;;9.65;4.70;;;;;;;17.68;100.00;101837.63;5070702;28;20051;-65
2023/09/05 04:55:51;;;;;;;9.55;4.80;;;;;;;17.67;100.00;101831.25;5077418;28;20068;-64
2023/09/05 04:58:39;;;;;;;8.88;4.65;;;;;;;17.66;100.00;101834.31;5075993;28;20052;-64
2023/09/05 05:01:27;;;;;;;11.07;4.63;;;;;;;17.68;100.00;101821.06;5066814;28;20041;-64
2023/09/05 05:04:15;;;;;;;9.25;4.30;;;;;;;17.67;100.00;101824.94;5053780;28;20485;-64
2023/09/05 05:07:03;;;;;;;9.35;4.85;;;;;;;17.64;100.00;101825.53;5059257;28;20049;-64
2023/09/05 05:09:51;;;;;;;11.38;4.72;;;;;;;17.67;100.00;101813.91;5074477;28;20201;-65
2023/09/05 05:12:40;;;;;;;10.00;4.53;;;;;;;17.63;100.00;101821.09;5052642;28;20045;-65
2023/09/05 05:15:28;;;;;;;7.95;4.68;;;;;;;17.64;100.00;101826.34;5062453;28;20109;-65
2023/09/05 05:18:16;;;;;;;11.10;4.70;;;;;;;17.63;100.00;101823.84;5059340;28;20127;-64
2023/09/05 05:21:04;;;;;;;6.50;4.18;;;;;;;17.66;99.89;101829.63;5072001;28;20085;-65
2023/09/05 05:23:52;;;;;;;9.77;4.50;;;;;;;17.68;100.00;101829.34;5059157;28;20593;-65
2023/09/05 05:26:41;;;;;;;11.77;4.47;;;;;;;17.70;99.91;101835.38;5059875;28;20131;-65
2023/09/05 05:29:32;;;;;;;10.38;4.85;;;;;;;17.68;99.02;101837.63;5059115;28;20056;-64
2023/09/05 05:32:20;;;;;;;9.55;4.28;;;;;;;17.70;98.93;101838.13;5072792;28;20125;-64
2023/09/05 05:35:09;;;;;;;11.13;5.13;;;;;;;17.74;99.25;101836.44;5058845;28;20080;-65
2023/09/05 05:37:57;;;;;;;12.07;4.22;;;;;;;17.75;98.76;101838.09;5071200;28;20102;-64
2023/09/05 05:40:45;;;;;;;9.93;4.22;;;;;;;17.75;99.59;101838.09;4342709;28;10000932;-64
2023/09/05 05:43:33;;;;;;;9.43;4.70;;;;;;;17.77;99.31;101835.03;5056944;28;20067;-65
2023/09/05 05:46:22;;;;;;;8.57;4.65;;;;;;;17.75;99.28;101840.84;5041954;28;20092;-65
2023/09/05 05:49:10;;;;;;;9.65;4.72;;;;;;;17.77;99.01;101833.09;5069560;28;20052;-64
2023/09/05 05:51:58;;;;;;;11.68;4.93;;;;;;;17.74;98.62;101836.44;5065608;28;20583;-65
2023/09/05 05:54:47;;;;;;;9.60;4.22;;;;;;;17.75;98.66;101838.09;5054421;28;20139;-64
2023/09/05 05:57:35;;;;;;;8.50;4.00;;;;;;;17.78;99.26;101831.19;5056411;28;20514;-64
2023/09/05 06:00:25;;;;;;;9.88;4.43;;;;;;;17.83;98.38;101823.69;5041119;28;20044;-64
2023/09/05 06:03:13;;;;;;;6.93;4.15;;;;;;;17.87;97.77;101835.78;5061397;28;20091;-64
2023/09/05 06:06:03;;;;;;;8.80;4.35;;;;;;;17.95;98.15;101833.50;5068945;28;20198;-64
2023/09/05 06:08:51;;;;;;;5.80;3.47;;;;;;;17.99;96.78;101837.28;5044591;28;20048;-64
2023/09/05 06:11:39;;;;;;;10.35;4.05;;;;;;;18.01;96.37;101829.56;5048575;28;20137;-63
2023/09/05 06:14:27;;;;;;;7.95;3.88;;;;;;;18.06;96.86;101832.25;5055689;28;20206;-64
2023/09/05 06:17:15;;;;;;;7.85;4.57;;;;;;;18.07;96.59;101833.91;5048928;28;20451;-64
2023/09/05 06:20:04;;;;;;;7.95;3.47;;;;;;;18.11;96.39;101834.94;5049480;28;20098;-65
2023/09/05 06:22:52;;;;;;;5.60;3.22;;;;;;;18.14;95.49;101839.06;5049166;28;20056;-64
2023/09/05 06:25:40;;;;;;;8.57;3.80;;;;;;;18.18;96.21;101838.16;5063825;28;20097;-64
2023/09/05 06:28:28;;;;;;;7.35;4.32;;;;;;;18.21;95.47;101829.31;5070970;28;20044;-63
2023/09/05 06:31:16;;;;;;;8.75;4.03;;;;;;;18.25;96.09;101830.34;5068944;28;20044;-63
2023/09/05 06:34:04;;;;;;;8.10;3.80;;;;;;;18.26;95.73;101834.78;5073885;28;20577;-64
2023/09/05 06:36:53;;;;;;;10.48;3.60;;;;;;;18.30;96.12;101830.31;5071779;28;20415;-63
2023/09/05 06:39:41;;;;;;;9.55;4.50;;;;;;;18.30;95.71;101833.06;5044318;28;20506;-63
2023/09/05 06:42:29;;;;;;;10.32;4.57;;;;;;;18.33;95.36;101830.81;5071954;28;20040;-65
2023/09/05 06:45:17;;;;;;;8.23;4.00;;;;;;;18.35;94.76;101834.09;5051923;28;20051;-64
2023/09/05 06:48:06;;;;;;;7.68;3.60;;;;;;;18.38;95.66;101828.00;5037894;28;20191;-63
2023/09/05 06:50:54;;;;;;;10.88;4.72;;;;;;;18.42;95.45;101829.03;5053128;28;20094;-64
2023/09/05 06:53:42;;;;;;;6.10;3.92;;;;;;;18.42;93.88;101829.84;5052126;28;20048;-63
2023/09/05 06:56:29;;;;;;;9.27;3.67;;;;;;;18.45;94.76;101828.47;5056559;28;20044;-64
2023/09/05 06:59:18;;;;;;;12.25;4.88;;;;;;;18.49;94.47;101829.50;5057928;28;20040;-64
2023/09/05 07:02:06;;;;;;;12.55;4.35;;;;;;;18.51;93.87;101824.50;5058535;28;20555;-65
2023/09/05 07:04:54;;;;;;;14.07;5.53;;;;;;;18.56;95.37;101835.47;5072079;28;20412;-64
2023/09/05 07:07:42;;;;;;;18.98;6.78;;;;;;;18.60;95.04;101825.47;5052372;28;20063;-66
2023/09/05 07:10:30;;;;;;;19.98;7.45;;;;;;;18.64;95.06;101821.03;5051147;28;20041;-64
2023/09/05 07:13:18;;;;;;;16.38;6.13;;;;;;;18.68;95.12;101822.03;5052063;28;20048;-64
2023/09/05 07:16:06;;;;;;;37.53;11.10;;;;;;;18.71;96.52;101813.19;5052339;28;20489;-64
2023/09/05 07:18:54;;;;;;;11.73;5.25;;;;;;;18.71;95.23;101806.81;5052758;28;20037;-64
2023/09/05 07:21:42;;;;;;;16.15;5.63;;;;;;;18.74;95.99;101804.28;5051065;28;20045;-64
2023/09/05 07:24:30;;;;;;;12.73;5.30;;;;;;;18.77;95.54;101807.63;5053767;28;20072;-64
2023/09/05 07:27:20;;;;;;;10.18;4.03;;;;;;;18.81;95.26;101803.13;5051750;28;20048;-63
2023/09/05 07:30:08;;;;;;;16.25;6.55;;;;;;;18.81;95.67;101808.63;5053050;28;20045;-63
2023/09/05 07:32:56;;;;;;;11.82;4.78;;;;;;;18.87;95.22;101812.97;5060359;28;20045;-63
2023/09/05 07:35:44;;;;;;;17.00;5.85;;;;;;;18.92;94.52;101810.13;5055311;28;20464;-64
2023/09/05 07:38:33;;;;;;;10.27;4.68;;;;;;;18.98;93.61;101808.94;5064044;28;20101;-61
2023/09/05 07:41:21;;;;;;;19.42;6.65;;;;;;;19.01;93.56;101807.50;5048992;28;20128;-65
2023/09/05 07:44:09;;;;;;;12.95;4.20;;;;;;;19.03;93.03;101810.81;5064047;28;20080;-63
2023/09/05 07:46:57;;;;;;;11.15;4.30;;;;;;;19.04;92.90;101812.44;5058183;28;20044;-62
2023/09/05 07:49:45;;;;;;;21.15;6.45;;;;;;;19.03;93.78;101811.63;5069802;28;20041;-63
2023/09/05 07:52:34;;;;;;;12.68;5.18;;;;;;;19.04;93.29;101809.66;5051666;28;20049;-63
2023/09/05 07:55:22;;;;;;;11.18;3.97;;;;;;;19.14;92.99;101798.44;5070104;28;20048;-64
2023/09/05 07:58:10;;;;;;;9.73;4.65;;;;;;;19.22;93.82;101788.63;5062992;28;20049;-63
2023/09/05 08:00:59;;;;;;;13.35;5.25;;;;;;;19.28;93.25;101799.31;5052105;28;20066;-64
2023/09/05 08:03:47;;;;;;;8.65;4.15;;;;;;;19.31;91.98;101803.41;5070691;28;20040;-64
2023/09/05 08:06:36;;;;;;;8.65;4.03;;;;;;;19.33;91.56;101812.22;5070716;28;20095;-63
2023/09/05 08:09:24;;;;;;;13.63;5.03;;;;;;;19.37;91.19;101800.25;5074894;28;20072;-64
2023/09/05 08:12:13;;;;;;;9.38;4.07;;;;;;;19.38;91.29;101806.59;5059592;28;20500;-64
2023/09/05 08:15:01;;;;;;;10.82;4.18;;;;;;;19.42;90.53;101804.88;5075415;28;20068;-64
2023/09/05 08:17:50;;;;;;;7.97;3.85;;;;;;;19.49;89.67;101808.06;5052788;28;20791;-63
2023/09/05 08:20:39;;;;;;;9.30;3.95;;;;;;;19.58;88.41;101811.75;5054645;28;20041;-64
2023/09/05 08:23:27;;;;;;;9.25;3.88;;;;;;;19.64;88.14;101808.91;5054483;28;20512;-63
2023/09/05 08:26:16;;;;;;;9.60;3.67;;;;;;;19.65;88.39;101799.47;5054350;28;20048;-63
2023/09/05 08:29:06;;;;;;;8.25;3.50;;;;;;;19.71;88.30;101806.59;5054155;28;20037;-65
2023/09/05 08:31:54;;;;;;;8.80;3.60;;;;;;;19.76;88.33;101809.25;5055426;28;20576;-64
2023/09/05 08:34:42;;;;;;;7.97;3.33;;;;;;;19.79;88.23;101803.09;5053284;28;20691;-64
2023/09/05 08:37:30;;;;;;;9.23;3.75;;;;;;;19.83;88.31;101798.59;5054086;28;20143;-63
2023/09/05 08:40:20;;;;;;;12.48;3.55;;;;;;;19.90;88.17;101804.53;5058154;28;20404;-64
2023/09/05 08:43:09;;;;;;;4.68;3.28;;;;;;;19.97;87.40;101796.66;5074766;28;20137;-63
2023/09/05 08:46:02;;;;;;;8.68;3.80;;;;;;;20.03;87.09;101807.59;5051032;28;20052;-64
2023/09/05 08:48:51;;;;;;;6.95;3.67;;;;;;;20.00;87.35;101807.09;5040624;28;20126;-64
2023/09/05 08:51:44;;;;;;;7.43;3.72;;;;;;;20.03;86.51;101799.31;5070481;28;20048;-62
2023/09/05 08:54:32;;;;;;;9.57;3.83;;;;;;;20.08;86.41;101807.50;5059343;28;20052;-62
2023/09/05 08:57:21;;;;;;;11.38;3.83;;;;;;;20.14;86.22;101815.41;5061257;28;20102;-62
2023/09/05 09:00:09;;;;;;;7.45;3.67;;;;;;;20.18;86.39;101818.38;5066325;28;20044;-64
2023/09/05 09:02:58;;;;;;;6.28;3.40;;;;;;;20.22;85.80;101813.84;5073580;28;20508;-63
2023/09/05 09:05:47;;;;;;;5.70;3.05;;;;;;;20.35;85.42;101813.00;5053277;28;20053;-64
2023/09/05 09:08:41;;;;;;;10.13;3.45;;;;;;;20.44;84.60;101813.09;5055733;28;20053;-63
2023/09/05 09:11:29;;;;;;;6.50;3.25;;;;;;;20.55;84.42;101805.38;5053155;28;20052;-64
2023/09/05 09:14:23;;;;;;;13.30;5.05;;;;;;;;;;5056669;28;20492;-64
2023/09/05 09:17:11;;;;;;;7.50;3.65;;;;;;;20.60;83.40;101810.84;5039390;28;20049;-64
2023/09/05 09:19:59;;;;;;;6.88;3.30;;;;;;;20.59;83.47;101811.97;5050538;28;20093;-64
2023/09/05 09:22:50;;;;;;;9.80;3.40;;;;;;;20.61;83.18;101816.06;5070612;28;20072;-64
2023/09/05 09:25:48;;;;;;;8.63;3.78;;;;;;;20.68;82.40;101820.34;5056916;28;20033;-63
2023/09/05 09:28:37;;;;;;;7.85;3.30;;;;;;;20.70;83.17;101812.53;5075102;28;20520;-62
2023/09/05 09:31:29;;;;;;;9.80;3.67;;;;;;;20.71;84.00;101815.00;5072794;28;20036;-63
2023/09/05 09:34:20;;;;;;;8.15;3.50;;;;;;;20.82;82.83;101821.94;5073603;28;20033;-63
2023/09/05 09:37:09;;;;;;;8.00;3.17;;;;;;;20.90;83.04;101823.16;5060129;28;20033;-64
2023/09/05 09:39:58;;;;;;;5.80;3.10;;;;;;;21.00;82.10;101827.63;5072170;28;20044;-65
2023/09/05 09:42:50;;;;;;;6.20;3.25;;;;;;;21.03;81.64;101827.00;5050701;28;20048;-64
2023/09/05 09:45:38;;;;;;;6.50;3.30;;;;;;;21.00;83.81;101816.56;5058605;28;20048;-64
2023/09/05 09:48:28;;;;;;;5.93;3.15;;;;;;;21.07;82.54;101822.47;5058561;28;20052;-64
2023/09/05 09:51:16;;;;;;;6.78;3.53;;;;;;;21.12;81.49;101813.19;5033075;28;20046;-65
2023/09/05 09:54:07;;;;;;;7.13;3.20;;;;;;;21.13;81.95;101820.38;5072899;28;20044;-64
2023/09/05 09:57:00;;;;;;;7.70;3.40;;;;;;;21.11;82.77;101819.88;5072800;28;20083;-65
2023/09/05 09:59:58;;;;;;;6.55;3.20;;;;;;;21.15;82.37;101829.22;5043450;28;20119;-64
2023/09/05 10:02:47;;;;;;;7.78;3.33;;;;;;;21.20;81.21;101824.34;5038022;28;20052;-63
2023/09/05 10:05:36;;;;;;;8.32;3.28;;;;;;;21.32;79.98;101820.19;5039941;28;20045;-65
2023/09/05 10:08:25;;;;;;;12.18;3.53;;;;;;;21.41;79.74;101829.41;5052652;28;20056;-64
2023/09/05 10:11:15;;;;;;;5.25;3.20;;;;;;;21.43;78.98;101824.34;5058418;28;20049;-64
2023/09/05 10:14:03;;;;;;;7.07;3.40;;;;;;;21.39;80.07;101820.56;5036975;28;20726;-64
2023/09/05 10:16:51;;;;;;;7.32;3.60;;;;;;;21.41;81.43;101818.31;5032649;28;20134;-64
2023/09/05 10:19:42;;;;;;;7.05;3.60;;;;;;;21.46;80.30;101813.44;5018033;28;20083;-63
2023/09/05 10:22:32;;;;;;;11.43;4.20;;;;;;;21.57;79.60;101813.97;5048504;28;20052;-65
2023/09/05 10:25:21;;;;;;;9.40;4.53;;;;;;;21.62;80.12;101805.56;5052038;28;20045;-63
2023/09/05 10:28:09;;;;;;;13.45;4.57;;;;;;;21.69;79.75;101800.34;5065274;28;20064;-64
2023/09/05 10:31:12;;;;;;;22.58;8.65;;;;;;;21.68;80.48;101798.69;5053272;28;20175;-64
2023/09/05 10:34:02;;;;;;;10.75;4.55;;;;;;;21.82;78.92;101797.78;5032172;28;20421;-64
2023/09/05 10:36:51;;;;;;;4.93;3.10;;;;;;;21.89;76.88;101806.47;5032798;28;20054;-64
2023/09/05 10:39:45;;;;;;;7.30;3.00;;;;;;;21.93;76.56;101799.13;4345257;28;10000785;-63
2023/09/05 10:42:34;;;;;;;6.78;3.00;;;;;;;22.04;75.80;101800.47;5034773;28;20120;-64
2023/09/05 10:45:22;;;;;;;9.82;4.22;;;;;;;22.16;75.91;101796.25;5044492;28;20505;-63
2023/09/05 10:48:15;;;;;;;7.15;3.63;;;;;;;22.12;77.08;101785.78;5049735;28;20419;-63
2023/09/05 10:51:05;;;;;;;9.35;3.42;;;;;;;22.16;76.61;101793.50;5033272;28;20501;-63
2023/09/05 10:53:53;;;;;;;8.48;3.08;;;;;;;22.24;76.33;101782.41;5047892;28;20575;-63
2023/09/05 10:56:45;;;;;;;7.90;3.72;;;;;;;22.29;75.55;101789.78;5030919;28;20073;-64
2023/09/05 10:59:33;;;;;;;15.82;7.60;;;;;;;22.27;76.22;101786.50;5053802;28;20048;-64
2023/09/05 11:02:25;;;;;;;8.63;3.50;;;;;;;22.31;76.18;101788.31;5033653;28;20401;-62
2023/09/05 11:05:18;;;;;;;9.90;3.25;;;;;;;22.38;76.60;101793.38;5037670;28;20045;-63
2023/09/05 11:08:21;;;;;;;10.88;4.57;;;;;;;22.45;76.59;101785.38;5042571;28;20702;-62
2023/09/05 11:11:09;;;;;;;9.77;4.13;;;;;;;22.52;75.95;101780.16;5046845;28;20759;-63
2023/09/05 11:13:57;;;;;;;9.38;3.78;;;;;;;22.59;76.38;101781.66;5035614;28;20048;-60
2023/09/05 11:16:49;;;;;;;8.57;3.60;;;;;;;22.66;76.21;101781.97;5067819;28;20052;-63
2023/09/05 11:19:40;;;;;;;7.13;3.30;;;;;;;22.75;75.09;101791.09;5068426;28;20044;-64
2023/09/05 11:22:29;;;;;;;6.53;3.15;;;;;;;22.78;75.40;101793.25;5066933;28;20535;-65
2023/09/05 11:25:18;;;;;;;8.27;3.30;;;;;;;22.83;75.05;101793.09;5063062;28;20048;-64
2023/09/05 11:28:06;;;;;;;17.20;6.78;;;;;;;22.68;76.25;101790.78;5052795;28;20087;-65
2023/09/05 11:30:57;;;;;;;8.73;3.95;;;;;;;22.67;76.07;101794.72;5066193;28;20137;-64
2023/09/05 11:33:45;;;;;;;7.15;2.95;;;;;;;22.78;75.30;101796.03;5060258;28;20044;-64
2023/09/05 11:36:37;;;;;;;6.10;3.05;;;;;;;22.90;74.16;101798.16;5046598;28;20076;-63
2023/09/05 11:39:28;;;;;;;6.22;3.10;;;;;;;22.92;73.33;101785.56;5029398;28;20506;-64
2023/09/05 11:42:20;;;;;;;7.22;3.63;;;;;;;22.93;74.29;101787.19;5055804;28;20416;-64
2023/09/05 11:45:27;;;;;;;9.95;4.22;;;;;;;22.92;74.99;101791.13;5054989;28;20131;-64
2023/09/05 11:48:15;;;;;;;8.00;3.40;;;;;;;23.00;73.87;101780.34;5052303;28;20041;-64
2023/09/05 11:51:04;;;;;;;5.05;3.17;;;;;;;23.16;74.13;101775.88;5035680;28;20037;-65
2023/09/05 11:53:52;;;;;;;6.03;3.17;;;;;;;23.27;73.64;101784.69;4700904;28;10000645;-64
2023/09/05 11:56:40;;;;;;;9.18;3.50;;;;;;;23.26;72.99;101777.50;5032114;28;20519;-64
2023/09/05 11:59:29;;;;;;;6.32;3.13;;;;;;;23.22;72.11;101771.78;5031128;28;20097;-64
2023/09/05 12:02:18;;;;;;;6.93;3.10;;;;;;;23.33;71.56;101770.28;5067050;28;20044;-65
2023/09/05 12:05:09;;;;;;;7.00;3.13;;;;;;;23.51;69.87;101764.66;5065266;28;20045;-63
2023/09/05 12:07:57;;;;;;;6.60;2.83;;;;;;;23.54;68.67;101766.78;5065813;28;20041;-64
2023/09/05 12:10:52;;;;;;;8.80;3.45;;;;;;;23.47;70.55;101766.47;5050566;28;20041;-64
2023/09/05 12:13:44;;;;;;;9.20;3.47;;;;;;;23.39;71.90;101757.81;5066708;28;20056;-64
2023/09/05 12:16:32;;;;;;;8.02;3.00;;;;;;;23.50;70.50;101746.31;5068092;28;20480;-63
2023/09/05 12:19:20;;;;;;;8.65;3.08;;;;;;;23.54;70.66;101741.72;5043701;28;20056;-64
2023/09/05 12:22:08;;;;;;;8.27;3.15;;;;;;;23.63;69.18;101730.56;5056573;28;20045;-64
2023/09/05 12:25:06;;;;;;;7.43;3.03;;;;;;;23.63;70.80;101720.25;5069354;28;20049;-64
2023/09/05 12:28:16;;;;;;;5.10;3.03;;;;;;;23.69;71.65;101712.53;5070317;28;20063;-64
2023/09/05 12:31:06;;;;;;;7.50;2.80;;;;;;;23.76;72.10;101716.47;5055417;28;20049;-63
2023/09/05 12:33:56;;;;;;;7.45;3.13;;;;;;;23.71;71.96;101705.47;5070492;28;20146;-64
2023/09/05 12:36:44;;;;;;;6.90;3.40;;;;;;;23.72;71.28;101706.31;5069482;28;20082;-65
2023/09/05 12:39:32;;;;;;;8.23;4.03;;;;;;;23.71;71.76;101713.81;5070856;28;20118;-64
2023/09/05 12:42:20;;;;;;;6.43;3.22;;;;;;;23.74;71.65;101710.41;5071458;28;20123;-64
2023/09/05 12:45:10;;;;;;;19.20;3.60;;;;;;;23.73;71.37;101707.94;5070018;28;20518;-63
2023/09/05 12:47:59;;;;;;;5.82;3.40;;;;;;;23.89;69.92;101708.19;5073365;28;20044;-63
2023/09/05 12:50:49;;;;;;;7.43;3.05;;;;;;;24.08;69.21;101711.34;5074249;28;20052;-62
2023/09/05 12:53:38;;;;;;;11.10;3.53;;;;;;;24.22;68.41;101713.84;5074711;28;20045;-64
2023/09/05 12:56:26;;;;;;;6.35;3.15;;;;;;;24.22;68.64;101709.09;5059216;28;20059;-64
2023/09/05 12:59:15;;;;;;;8.85;3.55;;;;;;;24.19;69.26;101706.16;5053794;28;20045;-63
2023/09/05 13:02:03;;;;;;;8.85;3.58;;;;;;;24.16;70.07;101713.22;5039954;28;20088;-64
2023/09/05 13:04:51;;;;;;;6.03;3.08;;;;;;;24.27;68.42;101710.88;5056735;28;20363;-65
2023/09/05 13:07:40;;;;;;;7.82;3.00;;;;;;;24.31;67.17;101706.22;5053568;28;20041;-65